createdAt,value
2018-06-27T00:01:43.325Z,14.90
2018-06-27T00:04:11.963Z,15.37
2018-06-27T00:06:40.861Z,15.30
2018-06-27T00:09:12.903Z,15.40
2018-06-27T00:11:41.423Z,14.47
2018-06-27T00:14:10.971Z,14.80
2018-06-27T00:16:39.357Z,15.27
2018-06-27T00:19:08.203Z,15.17
2018-06-27T00:21:36.621Z,15.40
2018-06-27T00:24:05.347Z,15.37
2018-06-27T00:26:33.992Z,16.00
2018-06-27T00:29:02.704Z,15.40
2018-06-27T00:31:31.331Z,15.40
2018-06-27T00:33:59.770Z,15.67
2018-06-27T00:36:28.127Z,14.90
2018-06-27T00:38:56.505Z,15.37
2018-06-27T00:41:25.154Z,14.77
2018-06-27T00:43:53.560Z,15.67
2018-06-27T00:46:22.496Z,16.33
2018-06-27T00:48:50.912Z,16.47
2018-06-27T00:51:19.315Z,15.80
2018-06-27T00:53:53.600Z,15.03
2018-06-27T00:56:22.671Z,15.17
2018-06-27T00:58:50.939Z,15.17
2018-06-27T01:01:19.508Z,15.93
2018-06-27T01:03:48.510Z,15.60
2018-06-27T01:06:17.140Z,15.97
2018-06-27T01:08:45.835Z,16.87
2018-06-27T01:11:14.317Z,16.67
2018-06-27T01:13:43.100Z,17.20
2018-06-27T01:16:25.034Z,17.83
2018-06-27T01:18:54.460Z,17.03
2018-06-27T01:21:23.397Z,17.60
2018-06-27T01:23:52.174Z,17.03
2018-06-27T01:26:21.023Z,17.00
2018-06-27T01:28:49.700Z,17.27
2018-06-27T01:31:18.127Z,17.43
2018-06-27T01:33:46.766Z,17.20
2018-06-27T01:36:15.371Z,17.00
2018-06-27T01:38:43.999Z,17.30
2018-06-27T01:41:12.805Z,17.37
2018-06-27T01:43:41.262Z,17.47
2018-06-27T01:46:09.656Z,17.83
2018-06-27T01:48:38.175Z,17.17
2018-06-27T01:51:06.823Z,18.10
2018-06-27T01:53:36.578Z,17.93
2018-06-27T01:56:07.395Z,18.43
2018-06-27T01:58:36.050Z,16.67
2018-06-27T02:01:04.780Z,17.63
2018-06-27T02:03:33.236Z,16.97
2018-06-27T02:06:01.929Z,16.37
2018-06-27T02:08:30.724Z,17.57
2018-06-27T02:10:59.164Z,18.07
2018-06-27T02:13:27.688Z,16.77
2018-06-27T02:15:56.325Z,17.67
2018-06-27T02:18:24.772Z,18.20
2018-06-27T02:20:53.333Z,18.53
2018-06-27T02:23:21.788Z,18.27
2018-06-27T02:25:50.416Z,18.43
2018-06-27T02:28:18.939Z,18.50
2018-06-27T02:30:47.465Z,18.50
2018-06-27T02:33:21.465Z,18.33
2018-06-27T02:35:50.145Z,18.37
2018-06-27T02:38:18.643Z,19.40
2018-06-27T02:40:47.344Z,19.07
2018-06-27T02:45:46.436Z,18.87
2018-06-27T02:48:14.937Z,18.90
2018-06-27T02:50:43.637Z,18.87
2018-06-27T02:53:12.441Z,20.23
2018-06-27T02:55:41.083Z,19.13
2018-06-27T02:58:09.547Z,18.40
2018-06-27T03:00:38.180Z,19.20
2018-06-27T03:03:06.763Z,18.87
2018-06-27T03:05:35.177Z,19.60
2018-06-27T03:08:03.677Z,19.23
2018-06-27T03:10:32.594Z,20.53
2018-06-27T03:13:01.248Z,20.40
2018-06-27T03:15:29.599Z,19.13
2018-06-27T03:17:58.017Z,20.33
2018-06-27T03:20:26.699Z,20.80
2018-06-27T03:22:55.085Z,19.57
2018-06-27T03:25:23.559Z,19.90
2018-06-27T03:27:52.063Z,19.33
2018-06-27T03:30:20.629Z,19.07
2018-06-27T03:32:49.120Z,19.70
2018-06-27T03:35:17.720Z,19.33
2018-06-27T03:37:46.277Z,19.93
2018-06-27T03:40:15.218Z,19.90
2018-06-27T03:42:43.936Z,20.37
2018-06-27T03:45:12.342Z,19.57
2018-06-27T03:47:40.892Z,19.80
2018-06-27T03:50:09.512Z,19.73
2018-06-27T03:52:45.552Z,19.13
2018-06-27T03:55:14.385Z,20.20
2018-06-27T03:57:43.009Z,20.73
2018-06-27T04:00:12.267Z,20.40
2018-06-27T04:02:40.766Z,20.33
2018-06-27T04:05:09.462Z,20.80
2018-06-27T04:07:38.255Z,20.07
2018-06-27T04:10:08.541Z,21.93
2018-06-27T04:12:37.100Z,21.20
2018-06-27T04:15:06.136Z,20.93
2018-06-27T04:17:34.773Z,21.13
2018-06-27T04:20:03.449Z,20.17
2018-06-27T04:22:34.121Z,21.03
2018-06-27T04:25:02.656Z,21.07
2018-06-27T04:27:31.804Z,20.97
2018-06-27T04:30:01.954Z,20.87
2018-06-27T04:32:30.780Z,21.83
2018-06-27T04:35:00.309Z,21.80
2018-06-27T04:37:29.222Z,20.87
2018-06-27T04:39:58.408Z,22.00
2018-06-27T04:42:27.005Z,20.87
2018-06-27T04:44:55.705Z,21.73
2018-06-27T04:47:24.268Z,21.27
2018-06-27T04:49:52.969Z,22.53
2018-06-27T04:52:21.600Z,22.53
2018-06-27T04:54:50.232Z,22.77
2018-06-27T04:57:19.005Z,22.60
2018-06-27T04:59:47.876Z,23.83
2018-06-27T05:02:16.431Z,22.90
2018-06-27T05:04:44.840Z,25.20
2018-06-27T05:07:13.324Z,23.20
2018-06-27T05:09:42.020Z,23.60
2018-06-27T05:12:10.452Z,24.13
2018-06-27T05:14:38.774Z,22.73
2018-06-27T05:17:07.238Z,22.43
2018-06-27T05:19:41.990Z,23.83
2018-06-27T05:22:10.923Z,23.77
2018-06-27T05:24:39.191Z,22.70
2018-06-27T05:27:08.020Z,22.13
2018-06-27T05:29:36.770Z,23.80
2018-06-27T05:32:05.440Z,21.90
2018-06-27T05:34:34.336Z,22.60
2018-06-27T05:37:03.256Z,23.73
2018-06-27T05:39:31.774Z,22.83
2018-06-27T05:42:00.236Z,21.90
2018-06-27T05:44:28.981Z,22.40
2018-06-27T05:46:57.542Z,22.60
2018-06-27T05:49:26.184Z,23.33
2018-06-27T05:51:54.791Z,21.60
2018-06-27T05:54:27.716Z,23.00
2018-06-27T05:56:56.845Z,21.53
2018-06-27T05:59:25.357Z,23.00
2018-06-27T06:01:55.279Z,22.07
2018-06-27T06:04:24.267Z,20.87
2018-06-27T06:06:53.760Z,21.50
2018-06-27T06:09:22.563Z,22.87
2018-06-27T06:11:50.984Z,22.27
2018-06-27T06:14:19.621Z,21.30
2018-06-27T06:16:48.140Z,21.27
2018-06-27T06:19:16.764Z,21.90
2018-06-27T06:21:45.214Z,22.70
2018-06-27T06:24:14.276Z,20.43
2018-06-27T06:26:42.836Z,21.60
2018-06-27T06:29:11.367Z,22.07
2018-06-27T06:31:40.264Z,21.47
2018-06-27T06:34:08.916Z,21.83
2018-06-27T06:36:37.395Z,22.00
2018-06-27T06:39:08.556Z,21.50
2018-06-27T06:41:37.452Z,21.67
2018-06-27T06:44:06.194Z,20.60
2018-06-27T06:46:35.297Z,21.27
2018-06-27T06:49:04.121Z,22.67
2018-06-27T06:51:32.716Z,22.00
2018-06-27T06:54:02.769Z,21.77
2018-06-27T06:56:32.201Z,20.23
2018-06-27T06:59:01.315Z,20.23
2018-06-27T07:01:29.835Z,20.27
2018-06-27T07:03:58.407Z,20.73
2018-06-27T07:06:27.105Z,20.67
2018-06-27T07:08:56.343Z,20.47
2018-06-27T07:11:25.144Z,19.93
2018-06-27T07:13:53.572Z,19.57
2018-06-27T07:16:24.964Z,19.53
2018-06-27T07:18:54.207Z,19.87
2018-06-27T07:21:23.720Z,19.87
2018-06-27T07:23:52.085Z,18.97
2018-06-27T07:26:20.758Z,19.07
2018-06-27T07:28:50.451Z,19.97
2018-06-27T07:31:19.178Z,20.00
2018-06-27T07:33:48.043Z,21.23
2018-06-27T07:36:17.114Z,20.83
2018-06-27T07:38:45.661Z,22.53
2018-06-27T07:41:14.535Z,20.17
2018-06-27T07:43:43.404Z,20.33
2018-06-27T07:46:11.817Z,20.53
2018-06-27T07:48:40.396Z,21.23
2018-06-27T07:51:08.847Z,22.47
2018-06-27T07:53:38.248Z,19.93
2018-06-27T07:56:07.372Z,21.30
2018-06-27T07:58:36.067Z,19.80
2018-06-27T08:01:04.676Z,20.33
2018-06-27T08:03:33.004Z,19.10
2018-06-27T08:06:01.729Z,19.60
2018-06-27T08:08:30.188Z,18.37
2018-06-27T08:10:58.889Z,18.73
2018-06-27T08:13:27.476Z,17.93
2018-06-27T08:15:56.083Z,18.83
2018-06-27T08:18:24.553Z,17.13
2018-06-27T08:20:53.200Z,16.93
2018-06-27T08:23:22.072Z,17.87
2018-06-27T08:25:54.924Z,16.97
2018-06-27T08:28:23.372Z,16.10
2018-06-27T08:30:51.972Z,15.40
2018-06-27T08:33:21.439Z,17.07
2018-06-27T08:35:50.442Z,18.67
2018-06-27T08:38:18.991Z,13.30
2018-06-27T08:40:47.648Z,16.47
2018-06-27T08:43:16.077Z,15.07
2018-06-27T08:45:44.981Z,16.03
2018-06-27T08:48:13.603Z,16.70
2018-06-27T08:50:41.954Z,14.83
2018-06-27T08:53:10.754Z,16.53
2018-06-27T08:55:39.241Z,16.30
2018-06-27T08:58:08.364Z,14.50
2018-06-27T09:00:36.960Z,14.00
2018-06-27T09:03:05.717Z,13.47
2018-06-27T09:05:38.613Z,14.43
2018-06-27T09:08:07.951Z,12.00
2018-06-27T09:10:36.547Z,17.20
2018-06-27T09:13:05.168Z,15.43
2018-06-27T09:15:33.620Z,18.00
2018-06-27T09:18:02.267Z,14.60
2018-06-27T09:20:30.784Z,14.50
2018-06-27T09:25:38.033Z,14.97
2018-06-27T09:28:06.574Z,12.50
2018-06-27T09:30:35.183Z,12.73
2018-06-27T09:33:04.094Z,14.83
2018-06-27T09:35:33.457Z,13.40
2018-06-27T09:38:02.888Z,15.60
2018-06-27T09:40:31.253Z,14.93
2018-06-27T09:43:03.452Z,13.07
2018-06-27T09:45:32.280Z,14.00
2018-06-27T09:48:01.019Z,13.50
2018-06-27T09:50:29.896Z,13.93
2018-06-27T09:52:58.742Z,13.43
2018-06-27T09:55:27.141Z,14.20
2018-06-27T09:57:55.914Z,12.83
2018-06-27T10:00:30.074Z,12.73
2018-06-27T10:02:58.725Z,14.43
2018-06-27T10:05:27.377Z,14.03
2018-06-27T10:07:55.967Z,14.90
2018-06-27T10:10:24.663Z,13.77
2018-06-27T10:12:53.640Z,15.50
2018-06-27T10:15:22.345Z,16.37
2018-06-27T10:17:50.944Z,15.90
2018-06-27T10:20:19.449Z,14.70
2018-06-27T10:22:48.128Z,16.90
2018-06-27T10:25:16.700Z,15.60
2018-06-27T10:27:45.942Z,17.03
2018-06-27T10:30:14.437Z,16.80
2018-06-27T10:32:43.821Z,17.20
2018-06-27T10:35:12.228Z,17.90
2018-06-27T10:37:40.866Z,14.20
2018-06-27T10:40:09.260Z,11.33
2018-06-27T10:42:37.914Z,12.10
2018-06-27T10:45:06.319Z,12.00
2018-06-27T10:47:34.593Z,11.17
2018-06-27T10:50:03.282Z,9.40
2018-06-27T10:52:31.766Z,10.00
2018-06-27T10:55:05.024Z,6.00
2018-06-27T10:57:33.497Z,7.60
2018-06-27T11:00:02.161Z,6.60
2018-06-27T11:02:34.142Z,6.47
2018-06-27T11:05:06.174Z,6.67
2018-06-27T11:07:34.831Z,6.63
2018-06-27T11:10:04.302Z,5.60
2018-06-27T11:12:32.794Z,6.10
2018-06-27T11:15:01.397Z,6.67
2018-06-27T11:17:29.929Z,5.53
2018-06-27T11:19:58.423Z,5.60
2018-06-27T11:22:27.067Z,5.50
2018-06-27T11:24:55.540Z,4.80
2018-06-27T11:27:24.993Z,5.20
2018-06-27T11:29:53.695Z,4.47
2018-06-27T11:32:22.620Z,4.60
2018-06-27T11:34:52.985Z,5.37
2018-06-27T11:37:21.734Z,4.30
2018-06-27T11:39:51.322Z,4.40
2018-06-27T11:42:20.777Z,5.17
2018-06-27T11:44:49.134Z,4.30
2018-06-27T11:47:18.694Z,4.00
2018-06-27T11:49:47.267Z,3.70
2018-06-27T11:52:16.170Z,3.40
2018-06-27T11:54:49.491Z,3.93
2018-06-27T11:57:18.002Z,4.00
2018-06-27T11:59:49.095Z,3.97
2018-06-27T12:02:17.801Z,3.67
2018-06-27T12:04:46.268Z,4.00
2018-06-27T12:07:15.306Z,4.07
2018-06-27T12:09:44.025Z,4.77
2018-06-27T12:12:12.530Z,4.23
2018-06-27T12:14:41.426Z,5.10
2018-06-27T12:17:10.005Z,4.50
2018-06-27T12:19:46.034Z,3.93
2018-06-27T12:22:22.640Z,4.83
2018-06-27T12:24:54.474Z,4.80
2018-06-27T12:27:23.195Z,4.13
2018-06-27T12:29:52.242Z,3.70
2018-06-27T12:32:22.181Z,3.63
2018-06-27T12:34:53.110Z,3.63
2018-06-27T12:37:23.310Z,3.47
2018-06-27T12:39:51.972Z,4.23
2018-06-27T12:42:21.656Z,3.47
2018-06-27T12:44:52.249Z,3.47
2018-06-27T12:47:22.802Z,3.70
2018-06-27T12:49:53.791Z,3.43
2018-06-27T12:52:23.077Z,3.40
2018-06-27T12:54:56.248Z,3.60
2018-06-27T12:57:24.872Z,3.50
2018-06-27T12:59:53.608Z,3.20
2018-06-27T13:02:22.366Z,3.07
2018-06-27T13:04:51.058Z,2.67
2018-06-27T13:07:19.322Z,2.97
2018-06-27T13:09:47.727Z,2.90
2018-06-27T13:12:16.369Z,2.63
2018-06-27T13:14:44.950Z,2.87
2018-06-27T13:17:13.956Z,2.80
2018-06-27T13:19:42.442Z,3.07
2018-06-27T13:22:11.065Z,2.30
2018-06-27T13:24:39.789Z,2.87
2018-06-27T13:27:08.284Z,2.50
2018-06-27T13:29:36.853Z,2.50
2018-06-27T13:32:05.582Z,2.63
2018-06-27T13:34:33.925Z,2.53
2018-06-27T13:37:02.707Z,2.70
2018-06-27T13:39:31.313Z,2.87
2018-06-27T13:41:59.963Z,2.13
2018-06-27T13:44:28.794Z,2.63
2018-06-27T13:46:57.836Z,2.40
2018-06-27T13:49:26.739Z,2.50
2018-06-27T13:51:55.412Z,2.50
2018-06-27T13:54:23.957Z,2.40
2018-06-27T13:56:52.959Z,2.63
2018-06-27T13:59:21.459Z,2.33
2018-06-27T14:01:50.030Z,2.80
2018-06-27T14:04:18.689Z,2.47
2018-06-27T14:06:47.098Z,2.40
2018-06-27T14:09:15.761Z,1.90
2018-06-27T14:11:44.336Z,2.57
2018-06-27T14:14:12.876Z,2.50
2018-06-27T14:16:41.362Z,2.10
2018-06-27T14:19:10.114Z,2.00
2018-06-27T14:21:38.854Z,2.27
2018-06-27T14:24:07.518Z,2.50
2018-06-27T14:26:35.993Z,2.00
2018-06-27T14:29:04.719Z,2.77
2018-06-27T14:31:33.244Z,2.10
2018-06-27T14:34:01.778Z,2.53
2018-06-27T14:36:30.381Z,2.23
2018-06-27T14:38:58.892Z,2.00
2018-06-27T14:41:27.549Z,2.80
2018-06-27T14:43:56.476Z,2.47
2018-06-27T14:46:25.037Z,2.43
2018-06-27T14:48:54.013Z,2.37
2018-06-27T14:51:22.609Z,2.60
2018-06-27T14:53:51.064Z,2.40
2018-06-27T14:56:19.731Z,2.40
2018-06-27T14:58:48.415Z,2.40
2018-06-27T15:01:17.194Z,2.93
2018-06-27T15:03:45.897Z,2.63
2018-06-27T15:06:14.768Z,2.37
2018-06-27T15:08:44.000Z,2.50
2018-06-27T15:11:12.665Z,2.60
2018-06-27T15:13:41.129Z,2.30
2018-06-27T15:16:09.868Z,2.47
2018-06-27T15:18:39.966Z,2.70
2018-06-27T15:21:08.620Z,2.70
2018-06-27T15:23:37.599Z,2.90
2018-06-27T15:26:06.881Z,3.00
2018-06-27T15:28:35.354Z,2.70
2018-06-27T15:31:04.605Z,3.27
2018-06-27T15:33:33.398Z,2.70
2018-06-27T15:36:02.492Z,3.03
2018-06-27T15:38:31.010Z,3.00
2018-06-27T15:40:59.492Z,3.20
2018-06-27T15:43:28.062Z,3.20
2018-06-27T15:45:57.176Z,3.17
2018-06-27T15:48:25.661Z,2.60
2018-06-27T15:50:54.172Z,2.90
2018-06-27T15:53:23.016Z,2.83
2018-06-27T15:55:52.500Z,3.23
2018-06-27T15:58:20.963Z,3.00
2018-06-27T16:00:49.654Z,3.50
2018-06-27T16:03:18.566Z,3.23
2018-06-27T16:05:47.080Z,3.10
2018-06-27T16:08:15.528Z,3.83
2018-06-27T16:10:44.159Z,3.60
2018-06-27T16:13:12.804Z,3.67
2018-06-27T16:15:41.398Z,3.60
2018-06-27T16:18:09.912Z,3.27
2018-06-27T16:20:38.668Z,3.37
2018-06-27T16:23:07.227Z,3.50
2018-06-27T16:25:35.851Z,3.17
2018-06-27T16:28:04.678Z,2.90
2018-06-27T16:30:33.092Z,2.83
2018-06-27T16:33:01.718Z,3.30
2018-06-27T16:35:30.353Z,3.03
2018-06-27T16:37:58.882Z,3.50
2018-06-27T16:40:27.665Z,3.10
2018-06-27T16:42:56.240Z,3.10
2018-06-27T16:45:25.110Z,3.10
2018-06-27T16:47:56.177Z,3.17
2018-06-27T16:50:26.316Z,3.10
2018-06-27T16:52:55.030Z,3.00
2018-06-27T16:55:23.656Z,3.07
2018-06-27T16:57:52.287Z,3.30
2018-06-27T17:00:20.857Z,3.10
2018-06-27T17:02:49.505Z,2.90
2018-06-27T17:05:18.196Z,2.83
2018-06-27T17:07:46.820Z,2.70
2018-06-27T17:10:15.713Z,2.73
2018-06-27T17:12:44.035Z,2.83
2018-06-27T17:15:12.581Z,2.20
2018-06-27T17:17:41.199Z,2.30
2018-06-27T17:20:10.057Z,2.33
2018-06-27T17:22:38.531Z,2.20
2018-06-27T17:25:07.352Z,2.70
2018-06-27T17:27:35.910Z,2.50
2018-06-27T17:30:04.909Z,2.50
2018-06-27T17:32:33.578Z,2.40
2018-06-27T17:35:03.236Z,2.27
2018-06-27T17:37:32.094Z,2.30
2018-06-27T17:40:00.850Z,2.73
2018-06-27T17:42:29.461Z,2.23
2018-06-27T17:44:57.956Z,2.40
2018-06-27T17:47:26.847Z,2.03
2018-06-27T17:49:55.812Z,2.40
2018-06-27T17:52:24.243Z,2.53
2018-06-27T17:54:52.961Z,2.27
2018-06-27T17:57:21.504Z,2.00
2018-06-27T17:59:50.042Z,2.03
2018-06-27T18:02:18.618Z,1.93
2018-06-27T18:04:47.207Z,1.97
2018-06-27T18:07:16.462Z,1.97
2018-06-27T18:09:45.065Z,1.63
2018-06-27T18:12:13.603Z,1.50
2018-06-27T18:14:42.326Z,1.73
2018-06-27T18:17:11.015Z,1.93
2018-06-27T18:19:39.535Z,1.50
2018-06-27T18:22:08.424Z,1.80
2018-06-27T18:24:37.058Z,1.90
2018-06-27T18:27:05.851Z,1.90
2018-06-27T18:29:34.718Z,1.57
2018-06-27T18:32:03.607Z,1.60
2018-06-27T18:34:32.234Z,1.53
2018-06-27T18:37:01.122Z,1.60
2018-06-27T18:39:29.732Z,1.40
2018-06-27T18:41:58.277Z,1.60
2018-06-27T18:44:26.988Z,1.27
2018-06-27T18:46:55.777Z,1.37
2018-06-27T18:49:24.259Z,1.67
2018-06-27T18:51:52.944Z,1.70
2018-06-27T18:54:21.983Z,1.50
2018-06-27T18:56:50.831Z,1.50
2018-06-27T18:59:19.817Z,1.67
2018-06-27T19:01:48.828Z,1.57
2018-06-27T19:04:17.330Z,1.90
2018-06-27T19:06:45.733Z,1.40
2018-06-27T19:09:14.232Z,1.77
2018-06-27T19:11:42.702Z,1.70
2018-06-27T19:14:11.357Z,1.80
2018-06-27T19:16:39.923Z,1.60
2018-06-27T19:19:08.593Z,1.80
2018-06-27T19:21:37.290Z,1.70
2018-06-27T19:24:06.499Z,1.60
2018-06-27T19:26:35.213Z,1.50
2018-06-27T19:29:03.779Z,1.80
2018-06-27T19:31:32.474Z,1.70
2018-06-27T19:34:01.373Z,1.40
2018-06-27T19:36:30.320Z,1.60
2018-06-27T19:38:58.933Z,1.53
2018-06-27T19:41:27.422Z,1.60
2018-06-27T19:43:56.022Z,1.73
2018-06-27T19:46:24.434Z,1.60
2018-06-27T19:48:53.113Z,1.60
2018-06-27T19:51:21.784Z,1.93
2018-06-27T19:53:50.234Z,1.90
2018-06-27T19:56:18.783Z,1.70
2018-06-27T19:58:47.322Z,1.60
2018-06-27T20:01:15.966Z,1.70
2018-06-27T20:03:44.508Z,2.00
2018-06-27T20:06:13.052Z,1.80
2018-06-27T20:08:41.637Z,1.60
2018-06-27T20:11:10.063Z,1.80
2018-06-27T20:13:39.359Z,1.93
2018-06-27T20:16:08.042Z,2.00
2018-06-27T20:18:36.547Z,1.93
2018-06-27T20:21:05.044Z,1.90
2018-06-27T20:23:33.618Z,2.07
2018-06-27T20:26:02.200Z,1.83
2018-06-27T20:28:30.834Z,1.97
2018-06-27T20:30:59.305Z,1.80
2018-06-27T20:33:27.569Z,2.07
2018-06-27T20:35:56.414Z,1.97
2018-06-27T20:38:25.010Z,1.97
2018-06-27T20:40:53.276Z,1.97
2018-06-27T20:43:21.844Z,1.80
2018-06-27T20:45:50.333Z,2.00
2018-06-27T20:48:18.851Z,1.90
2018-06-27T20:50:47.410Z,1.93
2018-06-27T20:53:15.924Z,2.20
2018-06-27T20:55:44.826Z,1.90
2018-06-27T20:58:13.476Z,2.00
2018-06-27T21:00:42.325Z,2.20
2018-06-27T21:03:11.030Z,2.20
2018-06-27T21:05:39.742Z,1.87
2018-06-27T21:08:08.408Z,2.17
2018-06-27T21:10:37.277Z,2.07
2018-06-27T21:13:05.763Z,2.03
2018-06-27T21:15:34.427Z,2.10
2018-06-27T21:18:03.213Z,1.97
2018-06-27T21:20:31.928Z,2.00
2018-06-27T21:23:00.493Z,1.83
2018-06-27T21:25:28.751Z,2.20
2018-06-27T21:27:57.197Z,2.20
2018-06-27T21:30:25.604Z,2.30
2018-06-27T21:32:54.074Z,2.33
2018-06-27T21:35:22.689Z,2.00
2018-06-27T21:37:51.128Z,2.00
2018-06-27T21:40:19.725Z,2.27
2018-06-27T21:42:48.365Z,2.30
2018-06-27T21:45:17.316Z,2.20
2018-06-27T21:47:45.733Z,2.07
2018-06-27T21:50:14.041Z,2.17
2018-06-27T21:52:42.615Z,2.60
2018-06-27T21:55:11.065Z,3.00
2018-06-27T21:57:39.685Z,2.37
2018-06-27T22:00:10.145Z,2.60
2018-06-27T22:02:38.745Z,2.50
2018-06-27T22:05:11.067Z,2.17
2018-06-27T22:07:40.273Z,2.10
2018-06-27T22:10:12.043Z,2.20
2018-06-27T22:12:40.570Z,2.30
2018-06-27T22:15:09.184Z,2.43
2018-06-27T22:17:37.675Z,2.50
2018-06-27T22:20:06.121Z,2.40
2018-06-27T22:22:34.791Z,2.30
2018-06-27T22:25:03.326Z,2.40
2018-06-27T22:27:31.996Z,2.37
2018-06-27T22:30:00.869Z,2.23
2018-06-27T22:32:29.432Z,2.30
2018-06-27T22:34:58.290Z,2.13
2018-06-27T22:37:27.025Z,2.40
2018-06-27T22:39:55.566Z,2.47
2018-06-27T22:42:24.006Z,2.50
2018-06-27T22:44:53.153Z,2.20
2018-06-27T22:47:21.845Z,2.57
2018-06-27T22:49:50.361Z,2.60
2018-06-27T22:52:18.979Z,2.27
2018-06-27T22:54:47.438Z,2.20
2018-06-27T22:57:15.984Z,2.10
2018-06-27T22:59:44.501Z,2.40
2018-06-27T23:02:13.101Z,2.20
2018-06-27T23:04:41.702Z,2.40
2018-06-27T23:07:10.078Z,2.50
2018-06-27T23:09:38.605Z,2.20
2018-06-27T23:12:07.087Z,2.57
2018-06-27T23:14:35.767Z,2.53
2018-06-27T23:17:04.621Z,2.30
2018-06-27T23:19:33.207Z,2.20
2018-06-27T23:22:02.445Z,2.27
2018-06-27T23:24:31.281Z,2.50
2018-06-27T23:27:00.115Z,2.23
2018-06-27T23:29:28.665Z,2.60
2018-06-27T23:31:57.025Z,2.50
2018-06-27T23:34:25.516Z,2.50
2018-06-27T23:36:54.161Z,2.40
2018-06-27T23:39:22.686Z,2.77
2018-06-27T23:41:51.200Z,2.87
2018-06-27T23:44:19.899Z,2.47
2018-06-27T23:46:48.372Z,2.20
2018-06-27T23:49:16.859Z,2.57
2018-06-27T23:51:45.640Z,2.40
2018-06-27T23:54:14.218Z,2.53
2018-06-27T23:56:42.804Z,2.17
2018-06-27T23:59:11.244Z,2.40
